createdAt,value
2023-09-21T00:00:29.286Z,6.82
2023-09-21T00:02:01.807Z,6.23
2023-09-21T00:03:37.684Z,6.18
2023-09-21T00:05:10.225Z,6.50
2023-09-21T00:06:42.346Z,6.30
2023-09-21T00:08:14.452Z,6.55
2023-09-21T00:09:48.209Z,6.20
2023-09-21T01:26:02.735Z,11.95
2023-09-21T01:27:35.832Z,6.13
2023-09-21T01:29:08.243Z,5.80
2023-09-21T01:30:40.893Z,6.17
2023-09-21T01:32:13.052Z,6.15
2023-09-21T01:33:45.406Z,5.97
2023-09-21T01:35:18.118Z,6.00
2023-09-21T01:36:50.150Z,6.25
2023-09-21T01:38:26.987Z,5.93
2023-09-21T01:39:59.042Z,5.45
2023-09-21T01:41:33.652Z,5.72
2023-09-21T01:44:38.564Z,5.60
2023-09-21T01:47:46.246Z,5.88
2023-09-21T01:49:19.104Z,5.68
2023-09-21T01:50:52.531Z,5.70
2023-09-21T01:52:24.708Z,6.03
2023-09-21T01:53:57.045Z,6.30
2023-09-21T01:55:29.136Z,6.05
2023-09-21T01:57:01.744Z,5.97
2023-09-21T02:01:50.371Z,5.97
2023-09-21T02:03:31.940Z,5.63
2023-09-21T02:05:05.143Z,5.60
2023-09-21T02:06:37.224Z,5.57
2023-09-21T02:08:11.329Z,5.63
2023-09-21T02:09:43.407Z,6.65
2023-09-21T02:11:15.688Z,5.32
2023-09-21T02:12:59.448Z,6.40
2023-09-21T02:16:04.108Z,5.10
2023-09-21T02:17:36.193Z,5.53
2023-09-21T02:19:09.414Z,5.85
2023-09-21T02:20:46.596Z,5.68
2023-09-21T02:22:19.045Z,5.40
2023-09-21T02:23:51.113Z,5.35
2023-09-21T02:25:24.018Z,5.68
2023-09-21T02:26:56.210Z,6.40
2023-09-21T02:28:28.285Z,5.22
2023-09-21T02:30:00.880Z,5.60
2023-09-21T02:31:32.905Z,5.85
2023-09-21T02:33:11.478Z,5.65
2023-09-21T02:34:43.608Z,5.78
2023-09-21T02:36:21.610Z,5.72
2023-09-21T02:37:54.839Z,5.80
2023-09-21T02:39:27.514Z,5.10
2023-09-21T02:40:59.692Z,5.90
2023-09-21T02:42:31.757Z,5.43
2023-09-21T02:44:05.531Z,5.57
2023-09-21T02:47:10.320Z,5.47
2023-09-21T02:48:42.801Z,5.28
2023-09-21T02:50:16.380Z,5.78
2023-09-21T02:51:48.890Z,5.85
2023-09-21T02:53:22.510Z,6.00
2023-09-21T02:54:55.563Z,5.97
2023-09-21T02:56:27.637Z,5.72
2023-09-21T02:58:11.447Z,5.80
2023-09-21T03:01:17.610Z,5.68
2023-09-21T03:02:50.831Z,5.43
2023-09-21T03:04:23.562Z,5.38
2023-09-21T03:05:56.607Z,5.60
2023-09-21T03:07:28.834Z,6.55
2023-09-21T03:09:01.100Z,6.10
2023-09-21T03:10:33.681Z,5.22
2023-09-21T03:12:06.252Z,5.85
2023-09-21T03:13:39.751Z,5.40
2023-09-21T03:15:16.140Z,5.50
2023-09-21T03:16:48.935Z,5.53
2023-09-21T03:18:22.739Z,5.97
2023-09-21T03:19:56.839Z,5.63
2023-09-21T03:21:29.298Z,5.22
2023-09-21T03:23:05.936Z,5.80
2023-09-21T03:24:41.260Z,5.38
2023-09-21T03:26:15.362Z,5.55
2023-09-21T03:27:50.189Z,4.78
2023-09-21T03:29:23.077Z,5.20
2023-09-21T03:30:55.865Z,5.45
2023-09-21T03:32:28.089Z,5.10
2023-09-21T03:34:04.167Z,5.75
2023-09-21T03:35:36.386Z,5.47
2023-09-21T03:37:08.558Z,5.72
2023-09-21T03:38:41.619Z,5.80
2023-09-21T03:40:15.022Z,5.75
2023-09-21T03:41:47.703Z,5.30
2023-09-21T03:43:21.023Z,5.38
2023-09-21T03:46:25.279Z,5.57
2023-09-21T03:47:57.820Z,5.47
2023-09-21T03:49:30.249Z,5.35
2023-09-21T03:51:05.913Z,4.90
2023-09-21T03:52:38.523Z,5.00
2023-09-21T03:54:10.723Z,5.55
2023-09-21T03:55:47.943Z,5.35
2023-09-21T03:57:20.163Z,5.63
2023-09-21T03:58:52.843Z,4.90
2023-09-21T04:00:39.120Z,5.13
2023-09-21T04:02:11.656Z,5.50
2023-09-21T04:03:45.095Z,5.25
2023-09-21T04:05:20.367Z,5.57
2023-09-21T04:06:52.581Z,5.20
2023-09-21T04:08:24.682Z,5.70
2023-09-21T04:09:56.823Z,5.35
2023-09-21T04:11:31.277Z,5.45
2023-09-21T04:13:03.566Z,5.22
2023-09-21T04:14:35.635Z,5.75
2023-09-21T04:16:07.870Z,5.93
2023-09-21T04:17:41.163Z,5.65
2023-09-21T04:19:16.265Z,5.63
2023-09-21T04:20:50.163Z,5.78
2023-09-21T04:22:23.460Z,5.53
2023-09-21T04:23:55.610Z,5.43
2023-09-21T04:25:27.797Z,6.03
2023-09-21T04:27:00.006Z,5.72
2023-09-21T04:28:32.167Z,5.35
2023-09-21T04:30:05.307Z,5.32
2023-09-21T04:31:38.520Z,5.07
2023-09-21T04:33:10.951Z,4.47
2023-09-21T04:34:43.366Z,5.33
2023-09-21T04:36:15.851Z,5.72
2023-09-21T04:37:49.474Z,5.47
2023-09-21T04:39:21.623Z,5.30
2023-09-21T04:40:54.099Z,5.60
2023-09-21T04:42:26.415Z,6.00
2023-09-21T04:43:58.538Z,6.18
2023-09-21T04:45:33.714Z,6.03
2023-09-21T04:47:06.738Z,5.78
2023-09-21T04:48:40.982Z,6.28
2023-09-21T04:50:14.647Z,5.97
2023-09-21T04:51:46.794Z,5.82
2023-09-21T04:53:18.907Z,6.63
2023-09-21T04:54:52.864Z,5.70
2023-09-21T04:56:25.024Z,5.97
2023-09-21T04:57:57.180Z,6.18
2023-09-21T04:59:29.699Z,5.82
2023-09-21T05:01:11.089Z,6.30
2023-09-21T05:02:44.193Z,5.93
2023-09-21T05:07:21.375Z,6.00
2023-09-21T05:08:55.233Z,5.93
2023-09-21T05:15:42.443Z,5.88
2023-09-21T05:17:14.659Z,6.10
2023-09-21T05:25:39.978Z,5.70
2023-09-21T05:27:13.397Z,5.55
2023-09-21T05:28:46.048Z,5.55
2023-09-21T05:30:20.682Z,5.85
2023-09-21T05:31:54.100Z,6.00
2023-09-21T05:33:26.314Z,6.40
2023-09-21T05:34:58.561Z,5.70
2023-09-21T05:36:31.688Z,5.70
2023-09-21T05:38:06.809Z,5.75
2023-09-21T05:39:42.263Z,6.28
2023-09-21T05:41:14.408Z,5.38
2023-09-21T05:42:46.665Z,5.88
2023-09-21T05:44:22.819Z,5.55
2023-09-21T05:45:55.040Z,5.53
2023-09-21T05:47:27.697Z,5.35
2023-09-21T05:49:00.914Z,5.78
2023-09-21T05:50:34.518Z,5.60
2023-09-21T05:52:13.300Z,5.57
2023-09-21T05:53:45.499Z,5.88
2023-09-21T05:55:18.198Z,5.63
2023-09-21T05:56:50.415Z,5.88
2023-09-21T05:58:22.520Z,5.53
2023-09-21T05:59:56.538Z,5.88
2023-09-21T06:01:32.829Z,5.53
2023-09-21T06:03:05.345Z,5.70
2023-09-21T06:04:37.854Z,5.90
2023-09-21T06:06:11.422Z,5.78
2023-09-21T06:07:43.587Z,5.38
2023-09-21T06:09:20.926Z,5.95
2023-09-21T06:10:53.724Z,6.13
2023-09-21T06:12:26.283Z,6.13
2023-09-21T06:13:58.434Z,6.40
2023-09-21T06:15:30.931Z,5.97
2023-09-21T06:17:08.129Z,5.75
2023-09-21T06:18:41.178Z,5.80
2023-09-21T06:20:14.415Z,5.90
2023-09-21T06:21:52.562Z,5.80
2023-09-21T06:23:24.946Z,5.75
2023-09-21T06:24:58.216Z,5.60
2023-09-21T06:28:02.784Z,5.78
2023-09-21T06:29:35.516Z,6.18
2023-09-21T06:31:08.740Z,5.85
2023-09-21T06:34:13.702Z,6.40
2023-09-21T06:35:46.115Z,6.07
2023-09-21T06:37:20.078Z,5.57
2023-09-21T06:38:52.851Z,5.90
2023-09-21T06:40:27.918Z,6.25
2023-09-21T06:42:00.257Z,5.75
2023-09-21T06:43:33.719Z,6.20
2023-09-21T06:45:07.313Z,5.60
2023-09-21T06:46:41.659Z,5.78
2023-09-21T06:48:14.125Z,6.00
2023-09-21T06:49:46.432Z,5.93
2023-09-21T06:51:18.629Z,5.80
2023-09-21T06:52:50.778Z,5.30
2023-09-21T06:54:25.289Z,5.80
2023-09-21T06:55:57.675Z,5.80
2023-09-21T06:57:30.581Z,5.43
2023-09-21T06:59:02.660Z,5.65
2023-09-21T07:00:35.384Z,5.43
2023-09-21T07:02:08.000Z,5.35
2023-09-21T07:03:40.272Z,5.28
2023-09-21T07:05:14.091Z,5.22
2023-09-21T07:06:46.842Z,5.60
2023-09-21T07:08:20.758Z,5.00
2023-09-21T07:09:55.031Z,5.57
2023-09-21T07:11:27.265Z,4.97
2023-09-21T07:12:59.885Z,5.38
2023-09-21T07:14:34.526Z,5.45
2023-09-21T07:16:06.740Z,5.40
2023-09-21T07:17:39.019Z,5.25
2023-09-21T07:19:11.861Z,5.72
2023-09-21T07:20:44.052Z,4.97
2023-09-21T07:22:16.332Z,5.05
2023-09-21T07:23:48.506Z,5.35
2023-09-21T07:25:21.366Z,5.82
2023-09-21T07:26:55.684Z,5.97
2023-09-21T07:28:30.896Z,5.10
2023-09-21T07:30:03.914Z,5.45
2023-09-21T07:31:37.433Z,5.85
2023-09-21T07:33:09.928Z,5.20
2023-09-21T07:34:42.307Z,5.57
2023-09-21T07:36:14.624Z,5.60
2023-09-21T07:37:51.412Z,5.50
2023-09-21T07:39:23.645Z,5.32
2023-09-21T07:40:55.872Z,5.50
2023-09-21T07:42:28.037Z,5.63
2023-09-21T07:44:00.197Z,5.63
2023-09-21T07:45:32.558Z,5.22
2023-09-21T07:47:05.468Z,5.55
2023-09-21T07:48:37.647Z,4.90
2023-09-21T07:50:10.092Z,5.25
2023-09-21T07:51:42.343Z,4.97
2023-09-21T07:53:14.448Z,4.80
2023-09-21T07:54:46.604Z,5.53
2023-09-21T07:56:18.717Z,5.70
2023-09-21T07:57:52.406Z,5.53
2023-09-21T07:59:24.610Z,5.63
2023-09-21T08:00:57.303Z,5.97
2023-09-21T08:02:29.549Z,5.97
2023-09-21T08:04:01.908Z,5.22
2023-09-21T08:05:34.815Z,5.20
2023-09-21T08:07:07.102Z,5.03
2023-09-21T08:08:39.249Z,5.45
2023-09-21T08:10:14.307Z,5.25
2023-09-21T08:11:46.815Z,5.57
2023-09-21T08:13:19.339Z,5.32
2023-09-21T08:14:52.501Z,6.05
2023-09-21T08:17:57.010Z,5.00
2023-09-21T08:19:29.188Z,5.47
2023-09-21T08:21:01.825Z,5.05
2023-09-21T08:22:33.969Z,5.75
2023-09-21T08:24:06.240Z,5.90
2023-09-21T08:25:39.419Z,6.00
2023-09-21T08:28:44.097Z,6.00
2023-09-21T08:30:17.540Z,5.80
2023-09-21T08:31:49.914Z,5.47
2023-09-21T08:33:22.399Z,6.30
2023-09-21T08:34:54.896Z,5.57
2023-09-21T08:36:27.868Z,6.07
2023-09-21T08:38:01.152Z,6.05
2023-09-21T08:39:33.361Z,5.30
2023-09-21T08:41:06.167Z,5.32
2023-09-21T08:42:38.677Z,5.68
2023-09-21T08:44:11.284Z,5.40
2023-09-21T08:45:43.445Z,5.70
2023-09-21T08:47:32.067Z,5.90
2023-09-21T08:49:08.283Z,6.00
2023-09-21T08:50:40.902Z,5.97
2023-09-21T08:52:14.566Z,7.20
2023-09-21T08:53:51.998Z,6.80
2023-09-21T08:55:27.040Z,6.65
2023-09-21T08:57:00.184Z,6.38
2023-09-21T09:00:08.273Z,6.72
2023-09-21T09:01:41.465Z,5.88
2023-09-21T09:04:46.824Z,5.80
2023-09-21T09:06:18.938Z,6.10
2023-09-21T09:07:51.076Z,6.43
2023-09-21T09:09:24.094Z,5.85
2023-09-21T09:10:56.333Z,5.90
2023-09-21T09:12:28.520Z,6.15
2023-09-21T09:14:00.641Z,6.15
2023-09-21T09:15:36.859Z,5.68
2023-09-21T09:17:15.461Z,5.70
2023-09-21T09:18:47.690Z,6.03
2023-09-21T09:20:21.054Z,6.05
2023-09-21T09:21:53.760Z,5.72
2023-09-21T09:23:26.500Z,5.03
2023-09-21T09:25:05.906Z,5.35
2023-09-21T09:26:38.139Z,6.00
2023-09-21T09:28:10.316Z,5.50
2023-09-21T09:29:55.101Z,5.75
2023-09-21T09:31:27.329Z,5.75
2023-09-21T09:32:59.744Z,5.32
2023-09-21T09:34:31.895Z,5.47
2023-09-21T09:36:04.480Z,5.53
2023-09-21T09:37:39.098Z,5.75
2023-09-21T09:39:16.678Z,5.65
2023-09-21T09:40:49.197Z,6.00
2023-09-21T09:42:21.944Z,6.40
2023-09-21T09:43:54.971Z,6.03
2023-09-21T09:45:27.565Z,5.93
2023-09-21T09:47:02.876Z,6.15
2023-09-21T09:48:36.364Z,6.60
2023-09-21T09:50:10.724Z,5.82
2023-09-21T09:51:46.250Z,6.03
2023-09-21T09:53:20.170Z,6.55
2023-09-21T09:54:53.535Z,5.72
2023-09-21T09:56:26.563Z,5.95
2023-09-21T09:57:59.689Z,6.30
2023-09-21T10:01:05.081Z,5.53
2023-09-21T10:02:38.310Z,5.68
2023-09-21T10:05:43.875Z,6.07
2023-09-21T10:07:18.674Z,6.13
2023-09-21T10:08:50.914Z,6.07
2023-09-21T10:10:23.964Z,6.05
2023-09-21T10:11:59.273Z,5.32
2023-09-21T10:13:31.719Z,5.40
2023-09-21T10:15:04.806Z,5.20
2023-09-21T10:16:40.490Z,4.78
2023-09-21T10:18:12.925Z,4.82
2023-09-21T10:19:45.928Z,5.32
2023-09-21T10:21:24.165Z,4.32
2023-09-21T10:22:57.261Z,4.78
2023-09-21T10:24:33.648Z,4.25
2023-09-21T10:26:06.237Z,4.80
2023-09-21T10:27:47.703Z,4.88
2023-09-21T10:49:07.677Z,4.80
2023-09-21T10:50:40.878Z,5.38
2023-09-21T10:53:45.919Z,4.93
2023-09-21T10:55:19.067Z,4.72
2023-09-21T10:58:25.989Z,4.30
2023-09-21T11:00:13.363Z,4.63
2023-09-21T11:01:46.415Z,4.78
2023-09-21T11:03:18.783Z,4.60
2023-09-21T11:04:54.133Z,4.63
2023-09-21T11:06:27.999Z,4.53
2023-09-21T11:08:00.642Z,4.43
2023-09-21T11:09:33.305Z,4.57
2023-09-21T11:11:05.536Z,4.97
2023-09-21T11:12:39.712Z,4.40
2023-09-21T11:14:11.950Z,5.15
2023-09-21T11:15:44.889Z,4.30
2023-09-21T11:17:20.642Z,4.47
2023-09-21T11:18:55.205Z,4.25
2023-09-21T11:20:27.477Z,5.13
2023-09-21T11:22:03.416Z,4.33
2023-09-21T11:23:37.223Z,4.80
2023-09-21T11:25:11.397Z,4.70
2023-09-21T11:26:56.017Z,5.03
2023-09-21T11:28:34.317Z,5.45
2023-09-21T11:30:11.740Z,5.47
2023-09-21T11:31:49.360Z,5.15
2023-09-21T11:33:22.130Z,6.18
2023-09-21T11:35:00.326Z,5.68
2023-09-21T11:36:32.524Z,5.70
2023-09-21T11:38:05.151Z,6.00
2023-09-21T11:39:42.835Z,5.60
2023-09-21T11:41:16.083Z,5.20
2023-09-21T11:42:50.521Z,5.10
2023-09-21T11:44:22.687Z,5.60
2023-09-21T11:45:54.996Z,5.15
2023-09-21T11:47:27.189Z,4.80
2023-09-21T11:49:00.211Z,4.95
2023-09-21T11:50:33.935Z,4.93
2023-09-21T11:52:06.441Z,5.20
2023-09-21T11:53:38.892Z,5.22
2023-09-21T11:55:12.825Z,4.63
2023-09-21T11:56:47.280Z,4.82
2023-09-21T11:58:19.708Z,3.97
2023-09-21T11:59:53.051Z,4.55
2023-09-21T12:01:25.557Z,4.20
2023-09-21T12:03:00.634Z,3.92
2023-09-21T12:04:33.194Z,4.55
2023-09-21T12:06:05.820Z,4.32
2023-09-21T12:07:41.607Z,4.47
2023-09-21T12:09:14.889Z,4.20
2023-09-21T12:10:48.522Z,4.32
2023-09-21T12:12:20.897Z,5.05
2023-09-21T12:13:53.055Z,3.80
2023-09-21T12:15:25.310Z,4.32
2023-09-21T12:16:57.614Z,4.40
2023-09-21T12:18:31.479Z,4.30
2023-09-21T12:20:12.945Z,4.60
2023-09-21T12:21:45.147Z,4.38
2023-09-21T12:23:17.793Z,4.22
2023-09-21T12:24:49.956Z,4.25
2023-09-21T12:26:22.556Z,4.78
2023-09-21T12:27:54.726Z,4.70
2023-09-21T12:29:26.921Z,4.18
2023-09-21T12:30:59.301Z,3.88
2023-09-21T12:32:33.199Z,4.40
2023-09-21T12:34:05.506Z,4.07
2023-09-21T12:35:37.672Z,5.13
2023-09-21T12:37:09.913Z,6.00
2023-09-21T12:38:42.296Z,4.57
2023-09-21T12:40:14.629Z,4.40
2023-09-21T12:41:47.010Z,3.97
2023-09-21T12:43:19.413Z,4.15
2023-09-21T12:44:51.555Z,3.80
2023-09-21T12:46:24.559Z,4.03
2023-09-21T12:49:29.390Z,4.55
2023-09-21T12:51:01.697Z,4.45
2023-09-21T12:52:34.572Z,5.65
2023-09-21T12:54:08.889Z,4.68
2023-09-21T12:55:45.783Z,6.43
2023-09-21T12:57:20.558Z,7.40
2023-09-21T12:58:52.760Z,5.43
2023-09-21T13:00:25.492Z,7.17
2023-09-21T13:01:58.387Z,4.78
2023-09-21T13:03:32.559Z,5.85
2023-09-21T13:05:05.692Z,4.07
2023-09-21T13:06:43.752Z,4.30
2023-09-21T13:08:17.729Z,4.15
2023-09-21T13:09:52.555Z,3.88
2023-09-21T13:11:25.156Z,4.25
2023-09-21T13:12:58.479Z,4.27
2023-09-21T13:14:32.040Z,4.20
2023-09-21T13:16:07.302Z,3.97
2023-09-21T13:17:39.983Z,3.65
2023-09-21T13:19:13.239Z,4.43
2023-09-21T13:20:45.538Z,4.03
2023-09-21T13:22:21.080Z,4.10
2023-09-21T13:23:57.366Z,4.50
2023-09-21T13:25:30.278Z,4.20
2023-09-21T13:27:03.761Z,4.20
2023-09-21T13:28:36.384Z,4.07
2023-09-21T13:30:14.498Z,4.07
2023-09-21T13:31:46.738Z,3.80
2023-09-21T13:33:20.195Z,4.20
2023-09-21T13:34:52.875Z,3.78
2023-09-21T13:36:25.035Z,3.78
2023-09-21T13:37:57.238Z,3.97
2023-09-21T13:39:29.375Z,3.92
2023-09-21T13:41:01.612Z,3.90
2023-09-21T13:42:34.786Z,4.03
2023-09-21T13:44:06.937Z,3.78
2023-09-21T13:45:39.364Z,4.13
2023-09-21T13:47:11.707Z,4.32
2023-09-21T13:48:44.030Z,4.47
2023-09-21T13:50:16.896Z,4.13
2023-09-21T13:51:49.264Z,3.85
2023-09-21T13:53:21.429Z,3.75
2023-09-21T13:55:06.110Z,4.00
2023-09-21T13:56:47.059Z,4.28
2023-09-21T13:58:20.435Z,3.97
2023-09-21T13:59:52.521Z,3.95
2023-09-21T14:01:28.209Z,3.50
2023-09-21T14:03:01.513Z,4.15
2023-09-21T14:06:07.141Z,3.72
2023-09-21T14:07:39.774Z,4.10
2023-09-21T14:09:12.116Z,3.95
2023-09-21T14:10:45.169Z,3.63
2023-09-21T14:13:49.644Z,3.78
2023-09-21T14:15:22.707Z,3.78
2023-09-21T14:18:27.049Z,4.13
2023-09-21T14:19:59.918Z,3.83
2023-09-21T14:21:33.087Z,4.28
2023-09-21T14:23:05.366Z,3.90
2023-09-21T14:24:37.666Z,4.23
2023-09-21T14:26:10.413Z,4.10
2023-09-21T14:27:43.246Z,3.88
2023-09-21T14:29:15.541Z,4.03
2023-09-21T14:30:48.213Z,3.80
2023-09-21T14:32:20.540Z,3.85
2023-09-21T14:33:52.748Z,4.13
2023-09-21T14:35:25.327Z,4.05
2023-09-21T14:36:57.564Z,4.03
2023-09-21T14:38:29.730Z,4.47
2023-09-21T14:40:02.147Z,3.90
2023-09-21T14:41:34.524Z,3.85
2023-09-21T14:43:07.346Z,4.20
2023-09-21T14:44:41.235Z,3.83
2023-09-21T14:46:13.412Z,4.05
2023-09-21T14:47:45.690Z,4.27
2023-09-21T14:49:17.814Z,4.18
2023-09-21T14:50:50.001Z,4.07
2023-09-21T14:52:22.197Z,4.00
2023-09-21T14:53:55.907Z,4.13
2023-09-21T14:55:28.119Z,4.20
2023-09-21T14:57:01.423Z,4.03
2023-09-21T14:58:34.118Z,4.00
2023-09-21T15:00:08.529Z,4.30
2023-09-21T15:01:41.386Z,4.30
2023-09-21T15:03:13.720Z,3.83
2023-09-21T15:04:45.955Z,4.03
2023-09-21T15:06:18.222Z,4.03
2023-09-21T15:08:02.696Z,4.25
2023-09-21T17:39:35.096Z,5.88
2023-09-21T17:41:07.277Z,6.32
2023-09-21T17:42:42.766Z,5.22
2023-09-21T17:44:16.949Z,5.00
2023-09-21T17:45:49.194Z,5.20
2023-09-21T17:47:21.569Z,5.57
2023-09-21T17:48:53.917Z,5.43
2023-09-21T17:50:26.802Z,4.90
2023-09-21T17:52:00.699Z,5.45
2023-09-21T17:53:32.860Z,5.65
2023-09-21T17:55:05.488Z,5.40
2023-09-21T17:56:37.784Z,5.78
2023-09-21T17:58:10.075Z,5.50
2023-09-21T17:59:42.791Z,5.45
2023-09-21T18:01:15.022Z,5.32
2023-09-21T18:02:47.472Z,5.53
2023-09-21T18:04:20.237Z,5.35
2023-09-21T18:05:52.453Z,5.72
2023-09-21T18:07:24.646Z,5.18
2023-09-21T18:08:56.854Z,5.13
2023-09-21T18:10:29.094Z,5.38
2023-09-21T18:46:21.653Z,5.43
2023-09-21T18:47:56.772Z,5.75
2023-09-21T18:49:28.963Z,5.45
2023-09-21T18:51:02.883Z,5.85
2023-09-21T18:52:35.958Z,5.43
2023-09-21T18:54:08.067Z,6.38
2023-09-21T18:55:40.264Z,5.60
2023-09-21T18:57:12.397Z,5.43
2023-09-21T18:58:45.941Z,5.40
2023-09-21T19:00:18.613Z,5.00
2023-09-21T19:01:50.851Z,5.13
2023-09-21T19:03:23.490Z,5.57
2023-09-21T19:04:55.732Z,5.78
2023-09-21T19:06:29.177Z,5.50
2023-09-21T19:08:01.655Z,5.85
2023-09-21T19:09:33.870Z,5.47
2023-09-21T19:11:06.557Z,5.88
2023-09-21T19:12:38.675Z,5.80
2023-09-21T19:14:13.062Z,5.65
2023-09-21T19:15:45.273Z,5.80
2023-09-21T19:17:17.733Z,5.63
2023-09-21T19:18:50.068Z,5.93
2023-09-21T19:20:24.118Z,5.93
2023-09-21T19:21:56.400Z,6.05
2023-09-21T19:23:28.720Z,5.90
2023-09-21T19:25:00.833Z,6.10
2023-09-21T19:26:33.047Z,6.65
2023-09-21T19:28:05.349Z,6.25
2023-09-21T19:29:37.549Z,6.57
2023-09-21T19:31:10.107Z,6.47
2023-09-21T19:32:42.511Z,6.28
2023-09-21T19:34:15.858Z,6.47
2023-09-21T19:37:20.825Z,6.75
2023-09-21T19:38:53.017Z,6.25
2023-09-21T19:40:25.185Z,6.43
2023-09-21T19:41:57.367Z,6.45
2023-09-21T19:43:29.600Z,6.47
2023-09-21T19:45:01.941Z,6.50
2023-09-21T19:46:34.241Z,6.40
2023-09-21T19:48:06.776Z,6.60
2023-09-21T19:49:40.773Z,6.43
2023-09-21T19:51:13.578Z,7.18
2023-09-21T19:52:45.910Z,6.95
2023-09-21T19:54:18.078Z,7.38
2023-09-21T19:55:50.344Z,6.45
2023-09-21T19:57:22.808Z,7.13
2023-09-21T19:58:54.993Z,6.80
2023-09-21T20:00:28.425Z,8.23
2023-09-21T20:02:00.630Z,8.07
2023-09-21T20:03:33.293Z,7.40
2023-09-21T20:05:08.710Z,7.65
2023-09-21T20:06:40.940Z,8.02
2023-09-21T20:08:13.191Z,7.88
2023-09-21T20:09:45.433Z,7.70
2023-09-21T20:11:18.063Z,8.50
2023-09-21T20:12:51.000Z,7.95
2023-09-21T20:14:23.123Z,8.38
2023-09-21T20:15:55.485Z,8.15
2023-09-21T20:17:27.712Z,8.93
2023-09-21T20:18:59.900Z,8.93
2023-09-21T20:20:32.087Z,8.68
2023-09-21T20:22:05.003Z,7.95
2023-09-21T20:23:37.194Z,8.23
2023-09-21T20:25:09.700Z,8.75
2023-09-21T20:26:41.866Z,9.65
2023-09-21T20:28:13.946Z,10.00
2023-09-21T20:29:46.091Z,11.15
2023-09-21T20:31:18.274Z,10.65
2023-09-21T20:32:51.151Z,10.43
2023-09-21T20:34:23.492Z,11.48
2023-09-21T20:35:56.632Z,10.60
2023-09-21T20:37:28.709Z,10.40
2023-09-21T20:39:00.932Z,10.88
2023-09-21T20:40:34.437Z,11.55
2023-09-21T20:42:06.569Z,12.20
2023-09-21T20:43:41.486Z,11.80
2023-09-21T20:45:13.675Z,10.10
2023-09-21T20:46:45.835Z,10.40
2023-09-21T20:48:17.989Z,11.05
2023-09-21T20:51:29.038Z,11.32
2023-09-21T20:53:01.194Z,10.13
2023-09-21T20:54:33.458Z,10.55
2023-09-21T20:56:06.200Z,10.95
2023-09-21T20:57:38.416Z,10.23
2023-09-21T20:59:10.659Z,10.50
2023-09-21T21:00:42.918Z,9.95
2023-09-21T21:02:15.880Z,9.68
2023-09-21T21:03:50.518Z,9.77
2023-09-21T21:05:22.794Z,10.05
2023-09-21T21:06:54.972Z,9.95
2023-09-21T21:08:29.780Z,10.15
2023-09-21T21:10:08.465Z,10.73
2023-09-21T21:11:40.604Z,10.23
2023-09-21T21:13:12.798Z,10.65
2023-09-21T21:14:45.016Z,10.48
2023-09-21T21:16:17.195Z,9.45
2023-09-21T21:17:49.424Z,9.68
2023-09-21T21:19:25.128Z,9.90
2023-09-21T21:20:57.361Z,9.80
2023-09-21T21:22:29.528Z,10.20
2023-09-21T21:24:06.814Z,10.93
2023-09-21T21:25:38.919Z,11.15
2023-09-21T21:27:11.071Z,10.40
2023-09-21T21:28:43.198Z,9.70
2023-09-21T21:30:17.051Z,10.10
2023-09-21T21:31:49.174Z,10.35
2023-09-21T21:33:21.408Z,11.13
2023-09-21T21:34:53.578Z,9.40
2023-09-21T21:36:25.801Z,10.25
2023-09-21T21:37:58.945Z,9.80
2023-09-21T21:39:31.260Z,10.43
2023-09-21T21:41:03.722Z,10.20
2023-09-21T21:42:35.923Z,9.38
2023-09-21T21:44:08.737Z,9.20
2023-09-21T21:45:41.160Z,9.85
2023-09-21T21:47:13.688Z,10.02
2023-09-21T21:48:45.750Z,9.63
2023-09-21T21:50:17.970Z,9.25
2023-09-21T21:51:50.099Z,10.10
2023-09-21T21:53:22.255Z,9.48
2023-09-21T21:56:27.309Z,9.00
2023-09-21T21:58:00.472Z,9.70
2023-09-21T21:59:32.711Z,9.48
2023-09-21T22:01:05.988Z,9.77
2023-09-21T22:04:10.218Z,9.40
2023-09-21T22:05:42.400Z,8.85
2023-09-21T22:07:15.051Z,9.07
2023-09-21T22:08:47.582Z,9.80
2023-09-21T22:10:20.202Z,9.35
2023-09-21T22:11:55.688Z,9.75
2023-09-21T22:13:30.851Z,9.52
2023-09-21T22:15:03.892Z,8.98
2023-09-21T22:16:36.243Z,9.25
2023-09-21T22:18:10.305Z,9.63
2023-09-21T22:19:43.661Z,10.15
2023-09-21T22:22:51.422Z,8.50
2023-09-21T22:24:23.565Z,8.35
2023-09-21T22:25:55.675Z,9.02
2023-09-21T22:27:27.813Z,9.38
2023-09-21T22:30:31.915Z,8.50
2023-09-21T22:32:04.221Z,8.65
2023-09-21T22:33:36.456Z,8.57
2023-09-21T22:35:11.435Z,8.20
2023-09-21T22:36:43.682Z,8.43
2023-09-21T22:38:17.192Z,8.20
2023-09-21T22:39:49.440Z,8.63
2023-09-21T22:41:21.544Z,8.45
2023-09-21T22:42:53.566Z,8.52
2023-09-21T22:44:25.671Z,8.73
2023-09-21T22:46:05.752Z,8.63
2023-09-21T22:47:38.095Z,7.90
2023-09-21T22:49:11.585Z,8.13
2023-09-21T22:50:47.347Z,8.27
2023-09-21T22:52:19.601Z,9.23
2023-09-21T22:53:53.941Z,8.75
2023-09-21T22:55:26.306Z,8.30
2023-09-21T22:57:03.480Z,8.37
2023-09-21T22:58:35.616Z,7.80
2023-09-21T23:00:11.807Z,8.48
2023-09-21T23:01:44.231Z,7.28
2023-09-21T23:04:58.693Z,7.53
2023-09-21T23:06:30.885Z,7.40
2023-09-21T23:08:03.295Z,7.28
2023-09-21T23:09:35.453Z,7.90
2023-09-21T23:11:11.256Z,7.55
2023-09-21T23:12:45.126Z,7.25
2023-09-21T23:14:18.463Z,7.57
2023-09-21T23:17:22.590Z,6.97
2023-09-21T23:18:55.446Z,8.20
2023-09-21T23:20:27.500Z,7.72
2023-09-21T23:21:59.534Z,7.53
2023-09-21T23:23:31.695Z,8.25
2023-09-21T23:25:04.208Z,7.93
2023-09-21T23:26:36.347Z,7.82
2023-09-21T23:28:08.408Z,8.25
2023-09-21T23:29:40.575Z,7.88
2023-09-21T23:31:12.729Z,7.80
2023-09-21T23:32:44.863Z,7.30
2023-09-21T23:34:17.029Z,7.93
2023-09-21T23:35:49.403Z,7.75
2023-09-21T23:37:22.088Z,7.22
2023-09-21T23:38:55.054Z,7.18
2023-09-21T23:40:28.592Z,6.85
2023-09-21T23:42:00.620Z,7.18
2023-09-21T23:43:33.013Z,7.30
2023-09-21T23:45:07.533Z,7.30
2023-09-21T23:46:41.610Z,7.22
2023-09-21T23:48:15.745Z,7.10
2023-09-21T23:49:48.001Z,7.18
2023-09-21T23:51:20.186Z,7.28
2023-09-21T23:52:52.344Z,6.88
2023-09-21T23:54:24.436Z,7.70
2023-09-21T23:55:56.906Z,7.50
2023-09-21T23:57:32.125Z,7.05
2023-09-21T23:59:05.608Z,6.30
